Time;durP1;ratioP1;P1;durP2;ratioP2;P2;SDS_P1;SDS_P2;PMS_P1;PMS_P2;Temp;Humidity;BMP_temperature;BMP_pressure;BME280_temperature;BME280_humidity;BME280_pressure;Samples;Min_cycle;Max_cycle;Signal;HPM_P1;HPM_P2
2023/10/17 00:00:38;;;;;;;;;1.00;1.00;;;;;22.08;45.02;101347.05;109995;1254;20027;-38
2023/10/17 00:03:24;;;;;;;;;1.00;1.00;;;;;22.06;45.29;101345.46;109946;1268;21516;-38
2023/10/17 00:05:51;;;;;;;;;1.50;1.50;;;;;22.06;45.06;101341.64;109919;1254;19459;-38
2023/10/17 00:08:18;;;;;;;;;2.00;2.00;;;;;22.07;45.30;101340.61;109952;1253;23741;-38
2023/10/17 00:10:45;;;;;;;;;2.00;2.00;;;;;22.06;45.21;101340.39;109990;1254;22753;-39
2023/10/17 00:13:38;;;;;;;;;4.00;2.00;;;;;22.05;45.03;101335.76;109909;1268;18562;-38
2023/10/17 00:16:06;;;;;;;;;1.50;1.50;;;;;22.06;45.21;101334.06;109966;1268;18624;-39
2023/10/17 00:18:32;;;;;;;;;4.00;2.00;;;;;22.06;45.14;101333.41;109928;1253;20731;-39
2023/10/17 00:21:10;;;;;;;;;2.00;2.00;;;;;22.06;45.29;101332.75;109917;1253;18483;-38
2023/10/17 00:23:36;;;;;;;;;2.00;2.00;;;;;22.06;45.17;101330.52;109783;1268;173233;-39
2023/10/17 00:26:03;;;;;;;;;1.50;1.50;;;;;22.05;45.33;101327.17;109915;1253;22854;-38
2023/10/17 00:28:30;;;;;;;;;4.00;3.00;;;;;22.05;45.10;101325.27;109951;1253;19675;-38
2023/10/17 00:30:56;;;;;;;;;1.00;1.00;;;;;22.05;45.29;101328.66;109945;1254;20196;-38
2023/10/17 00:33:23;;;;;;;;;1.50;1.50;;;;;22.06;45.01;101330.08;109948;1268;19327;-38
2023/10/17 00:35:49;;;;;;;;;2.00;2.00;;;;;22.06;44.96;101332.75;109914;1268;22226;-38
2023/10/17 00:38:15;;;;;;;;;5.00;3.00;;;;;22.05;45.25;101335.31;109923;1253;20068;-38
2023/10/17 00:40:47;;;;;;;;;2.00;2.00;;;;;22.05;45.21;101331.82;109932;1254;20991;-38
2023/10/17 00:43:13;;;;;;;;;1.00;1.00;;;;;22.04;44.91;101331.60;110033;1268;18643;-38
2023/10/17 00:45:39;;;;;;;;;2.00;2.00;;;;;22.05;45.04;101332.69;109917;1254;19740;-38
2023/10/17 00:48:08;;;;;;;;;1.50;1.50;;;;;22.06;45.17;101332.42;109880;1260;19249;-39
2023/10/17 00:50:34;;;;;;;;;1.00;1.00;;;;;22.04;44.99;101334.16;109938;1252;23153;-39
2023/10/17 00:53:00;;;;;;;;;4.00;4.00;;;;;22.04;45.01;101331.65;109917;1260;20172;-39
2023/10/17 00:55:26;;;;;;;;;1.50;1.50;;;;;22.04;45.03;101336.34;109959;1260;19652;-39
2023/10/17 00:57:53;;;;;;;;;2.00;2.00;;;;;22.04;45.20;101341.30;109961;1254;22098;-39
2023/10/17 01:00:23;;;;;;;;;2.00;1.00;;;;;22.04;45.21;101338.80;109959;1268;18737;-39
2023/10/17 01:02:51;;;;;;;;;1.00;1.00;;;;;22.03;44.94;101343.47;109963;1268;19594;-39
2023/10/17 01:05:17;;;;;;;;;3.00;3.00;;;;;22.04;45.24;101343.10;109930;1260;19467;-38
2023/10/17 01:07:43;;;;;;;;;2.00;2.00;;;;;22.04;45.02;101339.72;109919;1268;19815;-39
2023/10/17 01:10:10;;;;;;;;;1.00;1.00;;;;;22.04;45.18;101335.41;109944;1254;21757;-39
2023/10/17 01:12:40;;;;;;;;;1.50;1.50;;;;;22.05;45.26;101334.66;109927;1260;23029;-39
2023/10/17 01:15:07;;;;;;;;;1.00;1.00;;;;;22.04;45.04;101337.76;109869;1254;20182;-39
2023/10/17 01:17:35;;;;;;;;;2.00;2.00;;;;;22.05;44.94;101339.30;109973;1254;20907;-39
2023/10/17 01:20:08;;;;;;;;;2.00;1.00;;;;;22.04;44.94;101339.67;109977;1254;19723;-38
2023/10/17 01:22:36;;;;;;;;;1.00;1.00;;;;;22.04;45.08;101340.49;109840;1269;22098;-38
2023/10/17 01:25:17;;;;;;;;;1.00;1.00;;;;;22.03;45.02;101340.15;109958;1253;21963;-38
2023/10/17 01:27:44;;;;;;;;;1.00;1.00;;;;;22.05;45.18;101342.35;109945;1268;22719;-38
2023/10/17 01:30:10;;;;;;;;;2.00;2.00;;;;;22.04;45.06;101336.51;109952;1268;20139;-38
2023/10/17 01:32:37;;;;;;;;;1.00;1.00;;;;;22.05;44.99;101337.88;109930;1268;19375;-38
2023/10/17 01:35:03;;;;;;;;;2.00;1.00;;;;;22.04;44.84;101346.97;109917;1254;20191;-38
2023/10/17 01:37:29;;;;;;;;;2.00;2.00;;;;;22.04;44.87;101342.73;109890;1268;19412;-39
2023/10/17 01:39:55;;;;;;;;;2.00;2.00;;;;;22.05;45.03;101346.11;109912;1260;19393;-39
2023/10/17 01:42:21;;;;;;;;;1.00;1.00;;;;;22.04;44.88;101349.82;109932;1254;19343;-39
2023/10/17 01:44:47;;;;;;;;;1.00;1.00;;;;;22.03;44.84;101352.86;109938;1254;19794;-38
2023/10/17 01:47:14;;;;;;;;;1.00;1.00;;;;;22.04;45.05;101356.80;109887;1254;20395;-38
2023/10/17 01:49:40;;;;;;;;;1.33;1.33;;;;;22.02;44.73;101351.77;109953;1254;19682;-40
2023/10/17 01:52:08;;;;;;;;;1.00;1.00;;;;;22.03;44.86;101350.30;109917;1254;21606;-38
2023/10/17 01:54:36;;;;;;;;;2.00;2.00;;;;;22.07;44.89;101350.39;109923;1260;22552;-39
2023/10/17 01:57:06;;;;;;;;;1.50;1.50;;;;;22.04;44.94;101351.73;109920;1254;19715;-39
2023/10/17 01:59:34;;;;;;;;;1.00;1.00;;;;;22.05;45.10;101351.30;109980;1260;21270;-39
2023/10/17 02:02:03;;;;;;;;;2.00;2.00;;;;;22.04;45.04;101352.00;109933;1254;21004;-39
2023/10/17 02:04:30;;;;;;;;;2.00;1.33;;;;;22.04;44.89;101353.70;109941;1253;23162;-39
2023/10/17 02:06:56;;;;;;;;;2.00;2.00;;;;;22.05;44.94;101357.90;109928;1268;18855;-39
2023/10/17 02:09:44;;;;;;;;;2.00;2.00;;;;;22.02;45.05;101354.12;109898;1253;21731;-39
2023/10/17 02:12:10;;;;;;;;;1.00;1.00;;;;;22.03;44.99;101352.10;109944;1268;20833;-39
2023/10/17 02:14:37;;;;;;;;;1.00;1.00;;;;;22.03;44.96;101351.50;109930;1254;19436;-36
2023/10/17 02:17:04;;;;;;;;;2.00;2.00;;;;;22.02;44.99;101353.45;109893;1253;21971;-38
2023/10/17 02:19:32;;;;;;;;;2.00;2.00;;;;;22.02;44.87;101353.65;109937;1253;20889;-38
2023/10/17 02:21:58;;;;;;;;;1.00;1.00;;;;;22.02;45.05;101357.60;109965;1254;22733;-38
2023/10/17 02:24:25;;;;;;;;;1.00;1.00;;;;;22.03;44.99;101360.06;109929;1268;20679;-38
2023/10/17 02:26:55;;;;;;;;;1.00;1.00;;;;;22.01;44.80;101358.34;109926;1253;19744;-38
2023/10/17 02:29:24;;;;;;;;;2.00;1.00;;;;;22.02;44.89;101359.28;109937;1268;22040;-38
2023/10/17 02:31:52;;;;;;;;;1.00;1.00;;;;;22.01;45.02;101360.47;109958;1268;22505;-38
2023/10/17 02:34:22;;;;;;;;;2.00;1.33;;;;;22.00;44.71;101359.16;109941;1260;19625;-38
2023/10/17 02:36:48;;;;;;;;;2.00;2.00;;;;;22.00;44.74;101362.98;109952;1254;20138;-38
2023/10/17 02:39:13;;;;;;;;;1.00;1.00;;;;;22.01;44.71;101363.23;109943;1257;20495;-38
2023/10/17 02:41:45;;;;;;;;;1.00;1.00;;;;;21.99;44.85;101365.09;109926;1253;23407;-38
2023/10/17 02:44:11;;;;;;;;;1.00;1.00;;;;;22.00;44.90;101365.31;109963;1254;22851;-38
2023/10/17 02:46:37;;;;;;;;;1.00;1.00;;;;;22.00;44.85;101365.86;109948;1268;22953;-38
2023/10/17 02:49:07;;;;;;;;;1.00;1.00;;;;;21.98;44.97;101367.76;109421;1253;19814;-38
2023/10/17 02:51:33;;;;;;;;;4.00;2.00;;;;;21.99;44.77;101366.40;109934;1254;19989;-38
2023/10/17 02:53:59;;;;;;;;;1.50;1.50;;;;;22.00;44.65;101364.16;109939;1268;20841;-38
2023/10/17 02:56:25;;;;;;;;;1.00;1.00;;;;;21.99;44.86;101361.65;109913;1268;19835;-38
2023/10/17 02:58:59;;;;;;;;;1.00;1.00;;;;;21.99;44.69;101367.83;109882;1253;19788;-38
2023/10/17 03:01:27;;;;;;;;;1.00;1.00;;;;;21.98;44.93;101369.30;109915;1268;19234;-38
2023/10/17 03:03:53;;;;;;;;;1.00;1.00;;;;;21.99;44.90;101370.33;109932;1260;22598;-38
2023/10/17 03:06:19;;;;;;;;;1.00;1.00;;;;;22.01;44.68;101371.64;109949;1268;18617;-38
2023/10/17 03:08:51;;;;;;;;;2.00;1.00;;;;;21.99;44.87;101374.97;109891;1268;19521;-39
2023/10/17 03:11:17;;;;;;;;;1.00;1.00;;;;;21.99;44.78;101378.13;109950;1253;20912;-39
2023/10/17 03:13:44;;;;;;;;;1.00;1.00;;;;;22.00;44.72;101373.98;109883;1268;20113;-38
2023/10/17 03:16:21;;;;;;;;;2.00;2.00;;;;;21.99;44.83;101376.60;109854;1253;20757;-37
2023/10/17 03:18:50;;;;;;;;;1.00;1.00;;;;;21.98;44.86;101378.84;109810;1254;22734;-38
2023/10/17 03:21:18;;;;;;;;;1.00;1.00;;;;;21.98;44.72;101381.55;109870;1254;20160;-38
2023/10/17 03:23:48;;;;;;;;;1.00;1.00;;;;;21.98;44.91;101385.15;109912;1268;19429;-38
2023/10/17 03:26:15;;;;;;;;;2.00;2.00;;;;;22.00;44.97;101389.80;109946;1268;22204;-38
2023/10/17 03:28:40;;;;;;;;;1.00;1.00;;;;;22.00;44.77;101389.49;109942;1268;18317;-37
2023/10/17 03:31:10;;;;;;;;;1.00;1.00;;;;;21.99;44.69;101388.99;109823;1269;22662;-38
2023/10/17 03:33:40;;;;;;;;;2.00;2.00;;;;;21.99;44.60;101388.02;109938;1253;19691;-38
2023/10/17 03:36:06;;;;;;;;;1.00;1.00;;;;;22.00;44.72;101387.36;109953;1254;22760;-40
2023/10/17 03:38:32;;;;;;;;;1.00;1.00;;;;;21.98;44.85;101385.98;109908;1268;19609;-39
2023/10/17 03:41:02;;;;;;;;;1.00;1.00;;;;;21.99;44.65;101387.57;109959;1260;19638;-38
2023/10/17 03:43:37;;;;;;;;;;;;;;;21.98;44.76;101385.54;109950;1268;19761;-40
2023/10/17 03:46:04;;;;;;;;;1.00;1.00;;;;;21.97;44.85;101381.50;109924;1254;22744;-38
2023/10/17 03:48:32;;;;;;;;;1.00;1.00;;;;;21.97;44.61;101386.35;109920;1253;19316;-38
2023/10/17 03:51:09;;;;;;;;;2.00;2.00;;;;;21.97;44.52;101386.90;109925;1252;23211;-38
2023/10/17 03:53:42;;;;;;;;;1.50;1.50;;;;;21.98;44.54;101387.17;109949;1268;19577;-39
2023/10/17 03:56:11;;;;;;;;;2.00;1.00;;;;;21.96;44.46;101387.60;109950;1268;22233;-40
2023/10/17 03:58:49;;;;;;;;;2.00;2.00;;;;;21.97;44.73;101390.06;109863;1268;22793;-38
2023/10/17 04:01:18;;;;;;;;;2.00;2.00;;;;;21.97;44.69;101385.10;109882;1252;20977;-38
2023/10/17 04:03:45;;;;;;;;;1.50;1.50;;;;;21.96;44.62;101380.95;109864;1268;22899;-38
2023/10/17 04:06:21;;;;;;;;;1.00;1.00;;;;;21.96;44.54;101378.21;109974;1252;21519;-37
2023/10/17 04:08:56;;;;;;;;;1.00;1.00;;;;;21.97;44.67;101375.83;109952;1268;20646;-40
2023/10/17 04:11:25;;;;;;;;;2.00;2.00;;;;;21.96;44.50;101372.22;109918;1260;23824;-38
2023/10/17 04:13:51;;;;;;;;;1.00;1.00;;;;;21.95;44.71;101373.63;109933;1254;19970;-38
2023/10/17 04:16:21;;;;;;;;;2.00;2.00;;;;;21.95;44.51;101375.33;109904;1253;23147;-38
2023/10/17 04:18:54;;;;;;;;;2.00;2.00;;;;;21.95;44.39;101374.89;109944;1254;19688;-38
2023/10/17 04:21:26;;;;;;;;;4.00;4.00;;;;;21.96;44.46;101370.37;109909;1268;21938;-38
2023/10/17 04:23:52;;;;;;;;;1.50;1.50;;;;;21.96;44.62;101368.34;109921;1253;23304;-38
2023/10/17 04:26:19;;;;;;;;;4.00;2.00;;;;;21.95;44.67;101368.51;109939;1260;23019;-38
2023/10/17 04:28:49;;;;;;;;;2.00;2.00;;;;;21.95;44.55;101371.45;109976;1268;18598;-39
2023/10/17 04:31:24;;;;;;;;;2.00;2.00;;;;;21.96;44.67;101373.86;109911;1268;22639;-39
2023/10/17 04:33:56;;;;;;;;;4.00;4.00;;;;;21.96;44.68;101381.23;109952;1253;19609;-39
2023/10/17 04:36:22;;;;;;;;;2.00;2.00;;;;;21.97;44.54;101381.88;109982;1268;21002;-39
2023/10/17 04:39:09;;;;;;;;;;;;;;;21.97;44.34;101379.15;109915;1253;20493;-40
2023/10/17 04:41:44;;;;;;;;;2.00;2.00;;;;;21.97;44.23;101379.70;109961;1268;18418;-39
2023/10/17 04:44:16;;;;;;;;;2.00;2.00;;;;;21.97;44.49;101376.65;109944;1254;18594;-39
2023/10/17 04:46:49;;;;;;;;;4.00;4.00;;;;;21.95;44.56;101374.34;109964;1268;22015;-39
2023/10/17 04:49:18;;;;;;;;;2.00;2.00;;;;;21.95;44.43;101374.12;109941;1253;19785;-39
2023/10/17 04:51:44;;;;;;;;;3.00;3.00;;;;;21.94;44.57;101378.64;109954;1260;20317;-36
2023/10/17 04:54:22;;;;;;;;;2.00;2.00;;;;;21.95;44.58;101379.63;109961;1268;19407;-39
2023/10/17 04:56:59;;;;;;;;;4.00;2.00;;;;;21.94;44.39;101384.70;109947;1268;19483;-39
2023/10/17 04:59:41;;;;;;;;;2.00;2.00;;;;;21.94;44.54;101389.77;109964;1252;20341;-39
2023/10/17 05:02:36;;;;;;;;;4.00;4.00;;;;;21.96;44.47;101395.25;109915;1254;22352;-39
2023/10/17 05:08:11;;;;;;;;;4.00;4.00;;;;;21.95;44.27;101407.45;109850;1263;20024;-39
2023/10/17 06:19:09;;;;;;;;;5.00;4.00;;;;;22.34;45.72;101464.89;108906;1272;18506;-38
2023/10/17 06:21:38;;;;;;;;;5.67;5.67;;;;;22.37;45.75;101468.02;108908;1272;19327;-39
2023/10/17 06:24:18;;;;;;;;;;;;;;;22.35;45.60;101465.05;108927;1272;19651;-38
2023/10/17 06:26:47;;;;;;;;;2.00;2.00;;;;;22.36;45.68;101465.87;108875;1257;23020;-38
2023/10/17 06:32:06;;;;;;;;;4.00;4.00;;;;;22.34;45.52;101471.05;108860;1260;21015;-39
2023/10/17 06:34:33;;;;;;;;;;;;;;;22.37;45.69;101475.60;108837;1272;22316;-38
2023/10/17 06:36:59;;;;;;;;;4.00;4.00;;;;;22.31;45.48;101477.86;108867;1272;22760;-38
2023/10/17 06:39:36;;;;;;;;;4.00;4.00;;;;;22.27;45.61;101478.98;108997;1254;19333;-38
2023/10/17 06:42:14;;;;;;;;;6.00;5.00;;;;;22.29;45.50;101477.85;109938;1268;18524;-38
2023/10/17 06:44:51;;;;;;;;;5.00;5.00;;;;;22.29;45.39;101478.05;109937;1268;18718;-38
2023/10/17 06:47:17;;;;;;;;;4.00;4.00;;;;;22.28;45.50;101481.11;109961;1268;19461;-38
2023/10/17 06:50:16;;;;;;;;;6.00;5.00;;;;;22.28;45.36;101482.31;109900;1254;22876;-38
2023/10/17 06:52:40;;;;;;;;;4.00;4.00;;;;;22.27;45.31;101481.92;109933;1253;18819;-38
2023/10/17 06:55:07;;;;;;;;;6.00;6.00;;;;;22.28;45.17;101484.55;109953;1252;21989;-37
2023/10/17 06:57:36;;;;;;;;;6.00;5.00;;;;;22.25;45.12;101491.84;109970;1260;20632;-36
2023/10/17 07:00:16;;;;;;;;;;;;;;;22.29;44.26;101492.91;109921;1257;18642;-37
2023/10/17 07:02:42;;;;;;;;;6.00;6.00;;;;;22.26;43.74;101491.15;109944;1253;22621;-37
2023/10/17 07:05:08;;;;;;;;;5.00;4.00;;;;;22.22;43.47;101490.35;109867;1268;19104;-36
2023/10/17 07:07:39;;;;;;;;;10.50;10.00;;;;;22.18;43.35;101488.91;109848;1260;18667;-36
2023/10/17 07:10:16;;;;;;;;;11.00;11.00;;;;;22.18;42.95;101491.58;109918;1253;20733;-37
2023/10/17 07:12:42;;;;;;;;;7.00;6.00;;;;;22.18;43.56;101496.27;109917;1254;23362;-39
2023/10/17 07:15:13;;;;;;;;;8.00;6.00;;;;;22.20;43.47;101497.65;109913;1268;18372;-38
2023/10/17 07:17:48;;;;;;;;;10.00;8.50;;;;;22.17;43.22;101499.21;109987;1252;19454;-38
2023/10/17 07:20:29;;;;;;;;;11.00;9.00;;;;;22.14;42.96;101498.86;109446;1263;19368;-38
2023/10/17 07:22:57;;;;;;;;;8.00;8.00;;;;;22.13;42.59;101497.59;109954;1268;18541;-38
2023/10/17 07:25:23;;;;;;;;;8.50;8.50;;;;;22.16;42.33;101491.49;109894;1254;20791;-38
2023/10/17 07:27:52;;;;;;;;;8.00;8.00;;;;;22.13;42.06;101491.70;109917;1253;22981;-38
2023/10/17 07:30:34;;;;;;;;;10.33;8.67;;;;;22.14;42.02;101490.13;109869;1254;20900;-38
2023/10/17 07:33:04;;;;;;;;;11.00;9.00;;;;;22.13;41.89;101490.45;109943;1269;22648;-38
2023/10/17 07:35:30;;;;;;;;;9.00;8.00;;;;;22.09;41.59;101489.97;109956;1254;20154;-38
2023/10/17 07:37:57;;;;;;;;;8.00;8.00;;;;;22.04;41.21;101495.77;109923;1268;18695;-38
2023/10/17 07:40:31;;;;;;;;;7.00;6.00;;;;;22.07;40.80;101493.77;109884;1254;22722;-38
2023/10/17 07:43:00;;;;;;;;;11.50;10.00;;;;;22.12;40.63;101494.25;109938;1268;22325;-38
2023/10/17 07:45:26;;;;;;;;;7.00;7.00;;;;;22.08;39.25;101494.50;109931;1253;22338;-38
2023/10/17 07:47:53;;;;;;;;;11.00;9.00;;;;;22.09;39.60;101500.34;109867;1253;20506;-38
2023/10/17 07:50:20;;;;;;;;;10.00;9.00;;;;;22.04;39.42;101501.30;109874;1269;20699;-38
2023/10/17 07:52:50;;;;;;;;;11.67;11.00;;;;;22.06;38.76;101500.27;109929;1254;21412;-39
2023/10/17 07:55:22;;;;;;;;;11.00;11.00;;;;;22.07;37.85;101504.14;109929;1253;22962;-38
2023/10/17 07:57:52;;;;;;;;;12.00;11.00;;;;;22.02;37.21;101503.16;109917;1260;20160;-38
2023/10/17 08:00:26;;;;;;;;;14.00;11.50;;;;;22.00;36.86;101506.58;109955;1268;18700;-38
2023/10/17 08:02:52;;;;;;;;;11.00;11.00;;;;;22.10;36.93;101504.94;109972;1254;22825;-38
2023/10/17 08:05:19;;;;;;;;;13.00;12.00;;;;;22.09;36.65;101509.52;109948;1268;18607;-38
2023/10/17 08:07:49;;;;;;;;;13.00;13.00;;;;;22.11;35.97;101511.55;109993;1252;20164;-39
2023/10/17 08:10:29;;;;;;;;;13.00;12.00;;;;;22.12;35.68;101514.83;109967;1260;21910;-39
2023/10/17 08:12:55;;;;;;;;;11.00;11.00;;;;;22.11;35.34;101508.33;109939;1268;19943;-39
2023/10/17 08:15:22;;;;;;;;;11.50;11.50;;;;;22.08;35.23;101505.36;109927;1254;18669;-38
2023/10/17 08:17:49;;;;;;;;;12.00;12.00;;;;;22.14;34.85;101502.62;109933;1260;22852;-38
2023/10/17 08:22:58;;;;;;;;;11.50;11.50;;;;;22.19;35.13;101502.61;109923;1254;21646;-39
2023/10/17 08:25:30;;;;;;;;;12.50;12.00;;;;;22.28;34.57;101512.50;109967;1254;22670;-39
2023/10/17 08:27:57;;;;;;;;;11.00;11.00;;;;;22.27;34.60;101518.73;109977;1253;20130;-38
2023/10/17 08:30:25;;;;;;;;;13.00;13.00;;;;;22.27;34.17;101518.44;109989;1268;21972;-38
2023/10/17 08:32:57;;;;;;;;;14.00;13.00;;;;;21.98;32.81;101519.94;110029;1252;21017;-39
2023/10/17 08:35:36;;;;;;;;;11.50;11.50;;;;;21.54;32.22;101521.73;109969;1254;22236;-39
2023/10/17 08:38:03;;;;;;;;;14.00;14.00;;;;;21.31;32.45;101518.86;109928;1254;20897;-38
2023/10/17 08:40:39;;;;;;;;;17.00;12.00;;;;;21.20;32.41;101517.40;109939;1253;22400;-38
2023/10/17 08:43:06;;;;;;;;;15.00;14.00;;;;;21.10;32.56;101518.31;109955;1254;21250;-38
2023/10/17 08:45:35;;;;;;;;;11.00;11.00;;;;;21.00;32.35;101518.45;110030;1252;22764;-39
2023/10/17 08:48:02;;;;;;;;;17.00;14.00;;;;;20.87;32.98;101518.08;109931;1254;21939;-38
2023/10/17 08:50:27;;;;;;;;;16.00;14.00;;;;;20.83;34.37;101514.38;109907;1254;19816;-38
2023/10/17 08:52:53;;;;;;;;;16.00;14.00;;;;;20.87;33.37;101516.76;109939;1253;19809;-38
2023/10/17 08:55:19;;;;;;;;;13.50;12.00;;;;;20.78;33.29;101517.31;109923;1254;20450;-39
2023/10/17 08:57:46;;;;;;;;;16.00;15.00;;;;;20.75;33.38;101514.72;109924;1254;19775;-38
2023/10/17 09:00:23;;;;;;;;;16.00;16.00;;;;;20.97;33.33;101517.38;109858;1254;20006;-38
2023/10/17 09:02:49;;;;;;;;;18.00;16.00;;;;;21.04;34.18;101516.65;109889;1268;19651;-40
2023/10/17 09:05:19;;;;;;;;;14.00;13.00;;;;;21.10;35.03;101518.73;109977;1268;20088;-40
2023/10/17 09:07:45;;;;;;;;;14.00;14.00;;;;;21.14;34.72;101520.59;109948;1254;20272;-40
2023/10/17 09:10:15;;;;;;;;;13.50;13.00;;;;;21.17;34.49;101520.67;109971;1253;20963;-38
2023/10/17 09:12:43;;;;;;;;;;;;;;;21.17;34.42;101523.08;109973;1268;18789;-39
2023/10/17 09:15:16;;;;;;;;;14.00;13.00;;;;;21.19;34.20;101518.05;109975;1268;19553;-39
2023/10/17 09:17:47;;;;;;;;;8.50;8.50;;;;;21.21;34.08;101517.80;109947;1268;21633;-38
2023/10/17 09:20:16;;;;;;;;;14.00;13.00;;;;;21.20;34.20;101519.63;109962;1254;22802;-39
2023/10/17 09:22:44;;;;;;;;;26.00;20.00;;;;;21.09;33.67;101516.61;109956;1252;22072;-38
2023/10/17 09:25:10;;;;;;;;;18.00;17.00;;;;;21.20;34.51;101519.15;109972;1268;21872;-39
2023/10/17 09:27:37;;;;;;;;;18.00;14.00;;;;;21.40;34.85;101517.72;109951;1252;19997;-39
2023/10/17 09:30:05;;;;;;;;;11.00;10.00;;;;;21.56;35.40;101517.45;109942;1254;21908;-40
2023/10/17 09:32:32;;;;;;;;;18.00;12.00;;;;;21.60;35.85;101515.58;109979;1254;21111;-40
2023/10/17 09:34:58;;;;;;;;;17.00;9.00;;;;;21.70;36.29;101519.88;109929;1268;18613;-39
2023/10/17 09:37:27;;;;;;;;;11.00;8.00;;;;;21.70;36.47;101517.38;109899;1260;18520;-39
2023/10/17 09:39:53;;;;;;;;;8.50;8.50;;;;;21.78;36.83;101517.55;109959;1254;22092;-40
2023/10/17 09:42:19;;;;;;;;;9.00;9.00;;;;;21.88;37.15;101514.92;109907;1260;23842;-39
2023/10/17 09:44:45;;;;;;;;;8.00;7.00;;;;;21.92;37.37;101518.73;109850;1269;18757;-40
2023/10/17 09:47:11;;;;;;;;;9.00;8.00;;;;;21.93;37.72;101518.14;109810;1252;22509;-40
2023/10/17 09:49:37;;;;;;;;;7.00;7.00;;;;;21.99;38.00;101512.94;109566;1269;19561;-39
2023/10/17 09:52:03;;;;;;;;;9.00;8.50;;;;;22.03;38.05;101515.67;109595;1253;20130;-40
2023/10/17 09:54:29;;;;;;;;;6.00;6.00;;;;;22.05;38.13;101514.45;109593;1253;20673;-40
2023/10/17 09:56:55;;;;;;;;;8.00;8.00;;;;;22.04;38.62;101508.82;109574;1269;18452;-43
2023/10/17 09:59:24;;;;;;;;;6.00;6.00;;;;;22.05;38.55;101504.24;109567;1269;19874;-40
2023/10/17 10:01:50;;;;;;;;;9.00;6.00;;;;;22.06;38.88;101507.14;109561;1253;21123;-40
2023/10/17 10:04:16;;;;;;;;;;;;;;;22.10;38.61;101506.41;109568;1269;22154;-38
2023/10/17 10:06:42;;;;;;;;;8.00;8.00;;;;;22.11;38.93;101506.31;109575;1261;22315;-39
2023/10/17 10:09:13;;;;;;;;;5.00;5.00;;;;;22.14;38.85;101493.94;109583;1261;21503;-38
2023/10/17 10:11:40;;;;;;;;;6.00;6.00;;;;;22.16;39.02;101489.42;109623;1269;19597;-39
2023/10/17 10:14:08;;;;;;;;;5.00;4.00;;;;;22.15;39.15;101484.02;109595;1260;20167;-38
2023/10/17 10:16:34;;;;;;;;;6.00;6.00;;;;;22.14;39.20;101479.38;109557;1269;22449;-38
2023/10/17 10:19:00;;;;;;;;;6.00;5.00;;;;;22.15;39.43;101479.43;109540;1253;22915;-39
2023/10/17 10:21:26;;;;;;;;;;;;;;;22.17;39.45;101475.69;109511;1269;22693;-39
2023/10/17 10:23:52;;;;;;;;;5.00;5.00;;;;;22.16;39.41;101476.98;109530;1253;20500;-39
2023/10/17 10:26:19;;;;;;;;;6.00;4.00;;;;;22.17;39.84;101471.27;109534;1254;19021;-40
2023/10/17 10:28:45;;;;;;;;;4.00;4.00;;;;;22.18;39.83;101468.59;109566;1269;18673;-41
2023/10/17 10:31:11;;;;;;;;;6.00;6.00;;;;;22.18;39.88;101466.58;109525;1253;20463;-39
2023/10/17 10:33:37;;;;;;;;;4.00;4.00;;;;;22.18;39.81;101466.14;109518;1253;22311;-39
2023/10/17 10:36:04;;;;;;;;;5.00;5.00;;;;;22.18;40.10;101460.85;109521;1253;18412;-39
2023/10/17 10:38:31;;;;;;;;;5.00;5.00;;;;;22.17;39.98;101458.06;109554;1254;20926;-39
2023/10/17 10:40:56;;;;;;;;;4.00;4.00;;;;;22.14;40.44;101451.33;109529;1260;18215;-39
2023/10/17 10:43:22;;;;;;;;;2.00;2.00;;;;;22.18;40.21;101450.97;109498;1269;19723;-39
2023/10/17 10:45:50;;;;;;;;;5.00;4.00;;;;;22.16;40.39;101449.42;109562;1254;20611;-40
2023/10/17 10:48:17;;;;;;;;;4.00;4.00;;;;;22.16;40.32;101445.23;109689;1253;19999;-40
2023/10/17 10:50:43;;;;;;;;;4.00;4.00;;;;;22.16;40.37;101440.31;109609;1261;20275;-39
2023/10/17 10:53:11;;;;;;;;;4.00;4.00;;;;;22.15;40.50;101434.63;109510;1253;20451;-39
2023/10/17 10:55:37;;;;;;;;;4.00;4.00;;;;;22.13;40.60;101429.48;109547;1252;20881;-40
2023/10/17 10:58:03;;;;;;;;;5.00;4.00;;;;;22.09;39.56;101421.92;109504;1254;20097;-39
2023/10/17 11:00:29;;;;;;;;;4.00;4.00;;;;;21.91;37.67;101425.48;109516;1253;20538;-43
2023/10/17 11:02:56;;;;;;;;;4.00;4.00;;;;;21.83;36.20;101417.45;109552;1253;19384;-40
2023/10/17 11:05:23;;;;;;;;;5.00;5.00;;;;;21.74;35.27;101420.88;109551;1269;20197;-40
2023/10/17 11:07:49;;;;;;;;;4.00;4.00;;;;;21.68;34.63;101417.88;109536;1253;21996;-39
2023/10/17 11:10:18;;;;;;;;;4.00;4.00;;;;;21.63;33.88;101417.84;109531;1253;19743;-39
2023/10/17 11:12:44;;;;;;;;;5.00;5.00;;;;;21.61;33.72;101414.49;109505;1253;20210;-40
2023/10/17 11:15:14;;;;;;;;;4.00;4.00;;;;;21.57;33.09;101413.48;109437;1269;20132;-39
2023/10/17 11:17:40;;;;;;;;;5.00;5.00;;;;;21.48;32.79;101409.42;109475;1260;22885;-40
2023/10/17 11:20:13;;;;;;;;;5.00;4.00;;;;;21.42;32.63;101408.27;109385;1254;19760;-39
2023/10/17 11:22:40;;;;;;;;;4.67;4.67;;;;;21.42;32.24;101407.14;109485;1253;24184;-39
2023/10/17 11:25:07;;;;;;;;;5.00;4.50;;;;;21.32;32.29;101407.15;109508;1253;19814;-40
2023/10/17 11:27:33;;;;;;;;;4.00;3.33;;;;;21.43;32.94;101400.88;109494;1269;19534;-39
2023/10/17 11:29:59;;;;;;;;;5.00;5.00;;;;;21.53;33.16;101391.80;109539;1269;19321;-40
2023/10/17 11:32:26;;;;;;;;;5.00;5.00;;;;;21.61;33.15;101390.61;109524;1253;19672;-39
2023/10/17 11:34:57;;;;;;;;;4.00;4.00;;;;;21.64;33.60;101392.44;109526;1253;20004;-40
2023/10/17 11:37:23;;;;;;;;;3.00;2.00;;;;;21.68;33.70;101390.23;109588;1253;21939;-40
2023/10/17 11:39:51;;;;;;;;;3.00;3.00;;;;;21.70;33.92;101390.63;109561;1254;19349;-41
2023/10/17 11:42:17;;;;;;;;;4.00;4.00;;;;;21.72;34.28;101379.58;109535;1253;20173;-40
2023/10/17 11:44:46;;;;;;;;;4.50;4.00;;;;;21.73;34.75;101375.81;109509;1253;19126;-40
2023/10/17 11:47:18;;;;;;;;;2.00;2.00;;;;;21.76;34.95;101370.45;109576;1269;18357;-39
2023/10/17 11:49:47;;;;;;;;;4.00;4.00;;;;;21.78;35.18;101369.75;109495;1253;23377;-39
2023/10/17 11:52:13;;;;;;;;;7.50;4.50;;;;;21.80;35.71;101372.65;109549;1254;21904;-40
2023/10/17 11:54:39;;;;;;;;;2.00;2.00;;;;;21.82;35.85;101369.34;109606;1269;18583;-40
2023/10/17 11:57:05;;;;;;;;;6.00;5.00;;;;;21.83;35.79;101368.75;109602;1269;19703;-40
2023/10/17 11:59:32;;;;;;;;;4.00;4.00;;;;;21.83;36.33;101366.45;109602;1269;22089;-39
2023/10/17 12:02:02;;;;;;;;;4.00;4.00;;;;;21.87;36.47;101366.21;109627;1254;19679;-40
2023/10/17 12:04:28;;;;;;;;;4.00;4.00;;;;;21.86;36.73;101361.13;109697;1254;20038;-39
2023/10/17 12:06:54;;;;;;;;;4.00;4.00;;;;;21.86;36.58;101361.19;109932;1268;19542;-40
2023/10/17 12:09:23;;;;;;;;;4.00;4.00;;;;;21.90;36.98;101361.53;109952;1253;19644;-39
2023/10/17 12:11:49;;;;;;;;;4.00;4.00;;;;;21.90;37.09;101360.94;109873;1263;20095;-40
2023/10/17 12:14:19;;;;;;;;;3.00;3.00;;;;;21.90;37.00;101359.68;109639;1253;19122;-40
2023/10/17 12:16:46;;;;;;;;;4.00;2.00;;;;;21.90;37.05;101355.05;109611;1253;22051;-40
2023/10/17 12:19:13;;;;;;;;;5.00;4.00;;;;;21.92;37.42;101346.88;109623;1253;21320;-39
2023/10/17 12:21:40;;;;;;;;;4.00;4.00;;;;;21.91;37.27;101354.67;109645;1253;20513;-39
2023/10/17 12:24:11;;;;;;;;;5.00;5.00;;;;;21.94;37.25;101357.70;109448;1269;234909;-40
2023/10/17 12:26:37;;;;;;;;;2.00;2.00;;;;;21.94;37.55;101356.00;109590;1253;22027;-39
2023/10/17 12:29:03;;;;;;;;;4.00;4.00;;;;;21.95;37.44;101355.90;109561;1254;20730;-39
2023/10/17 12:31:29;;;;;;;;;4.00;2.00;;;;;21.94;37.83;101357.52;109594;1253;23491;-40
2023/10/17 12:33:55;;;;;;;;;4.00;4.00;;;;;21.96;37.85;101356.35;109581;1269;23016;-40
2023/10/17 12:36:22;;;;;;;;;4.00;2.00;;;;;21.96;37.70;101353.34;109620;1269;20701;-39
2023/10/17 12:38:49;;;;;;;;;4.00;4.00;;;;;21.95;37.95;101356.67;109595;1269;18464;-39
2023/10/17 12:41:15;;;;;;;;;4.00;4.00;;;;;21.96;37.94;101357.33;109568;1254;20051;-39